createdAt,value
2022-08-05T00:02:20.857Z,25.21
2022-08-05T00:06:29.041Z,25.12
2022-08-05T00:10:34.040Z,25.04
2022-08-05T00:14:37.048Z,24.94
2022-08-05T00:18:42.328Z,24.89
2022-08-05T00:22:47.189Z,24.75
2022-08-05T00:27:00.545Z,24.64
2022-08-05T00:31:04.332Z,24.46
2022-08-05T00:35:07.739Z,24.28
2022-08-05T00:39:13.793Z,24.24
2022-08-05T00:43:15.912Z,24.25
2022-08-05T00:47:18.309Z,24.16
2022-08-05T00:51:51.481Z,24.14
2022-08-05T00:55:43.905Z,23.90
2022-08-05T00:59:45.513Z,23.61
2022-08-05T01:03:50.040Z,23.39
2022-08-05T01:08:30.647Z,23.21
2022-08-05T01:12:19.295Z,23.01
2022-08-05T01:16:26.657Z,22.96
2022-08-05T01:20:45.894Z,22.88
2022-08-05T01:24:50.370Z,22.69
2022-08-05T01:29:08.445Z,22.57
2022-08-05T01:33:13.077Z,22.55
2022-08-05T01:37:44.362Z,22.52
2022-08-05T01:41:47.790Z,22.28
2022-08-05T01:45:56.209Z,21.99
2022-08-05T01:50:02.913Z,21.83
2022-08-05T01:54:08.365Z,21.67
2022-08-05T01:58:40.690Z,21.44
2022-08-05T02:02:38.165Z,21.38
2022-08-05T02:06:48.101Z,21.37
2022-08-05T02:10:54.037Z,21.39
2022-08-05T02:15:06.921Z,21.45
2022-08-05T02:19:34.317Z,21.52
2022-08-05T02:23:40.604Z,21.63
2022-08-05T02:27:59.520Z,21.69
2022-08-05T02:32:04.864Z,21.74
2022-08-05T02:36:13.708Z,21.75
2022-08-05T02:40:18.630Z,21.60
2022-08-05T02:44:23.038Z,21.52
2022-08-05T02:48:29.710Z,21.44
2022-08-05T02:52:32.737Z,21.43
2022-08-05T02:56:36.669Z,21.36
2022-08-05T03:00:46.146Z,21.38
2022-08-05T03:04:53.282Z,21.34
2022-08-05T03:08:55.239Z,21.23
2022-08-05T03:17:07.348Z,21.21
2022-08-05T03:21:11.769Z,21.26
2022-08-05T03:25:33.078Z,21.20
2022-08-05T03:29:45.894Z,21.15
2022-08-05T03:33:57.948Z,21.12
2022-08-05T03:38:02.591Z,21.07
2022-08-05T03:42:04.405Z,21.04
2022-08-05T03:46:08.317Z,21.08
2022-08-05T03:50:10.203Z,21.06
2022-08-05T03:55:34.714Z,21.13
2022-08-05T03:58:59.914Z,21.17
2022-08-05T04:03:04.511Z,21.18
2022-08-05T04:07:07.197Z,21.11
2022-08-05T04:11:09.962Z,21.11
2022-08-05T04:15:15.503Z,21.20
2022-08-05T04:19:18.274Z,21.14
2022-08-05T04:24:04.909Z,21.15
2022-08-05T04:27:57.275Z,21.23
2022-08-05T04:32:00.415Z,21.28
2022-08-05T04:36:15.789Z,21.30
2022-08-05T04:40:22.825Z,21.38
2022-08-05T04:44:29.394Z,21.44
2022-08-05T04:48:31.802Z,21.47
2022-08-05T04:52:34.070Z,21.47
2022-08-05T04:56:36.813Z,21.42
2022-08-05T05:00:39.565Z,21.42
2022-08-05T05:04:47.666Z,21.41
2022-08-05T05:08:51.325Z,21.41
2022-08-05T05:12:54.487Z,21.30
2022-08-05T05:16:56.697Z,21.16
2022-08-05T05:20:59.431Z,21.13
2022-08-05T05:25:16.543Z,21.04
2022-08-05T05:29:18.641Z,21.07
2022-08-05T05:33:23.395Z,21.07
2022-08-05T05:37:37.358Z,21.08
2022-08-05T05:41:54.105Z,21.04
2022-08-05T05:45:56.663Z,21.01
2022-08-05T05:50:01.439Z,21.07
2022-08-05T05:54:03.673Z,21.07
2022-08-05T05:58:05.377Z,21.05
2022-08-05T06:02:07.181Z,21.07
2022-08-05T06:06:09.284Z,21.11
2022-08-05T06:10:10.929Z,21.13
2022-08-05T06:14:12.524Z,21.22
2022-08-05T06:18:14.733Z,21.19
2022-08-05T06:22:23.777Z,21.22
2022-08-05T06:26:25.992Z,21.21
2022-08-05T06:30:33.446Z,21.18
2022-08-05T06:34:35.296Z,21.16
2022-08-05T06:38:37.205Z,21.17
2022-08-05T06:42:39.744Z,21.17
2022-08-05T06:46:41.357Z,21.21
2022-08-05T06:50:43.973Z,21.21
2022-08-05T06:54:53.349Z,21.24
2022-08-05T06:58:55.595Z,21.26
2022-08-05T07:02:57.475Z,21.38
2022-08-05T07:06:58.893Z,21.41
2022-08-05T07:11:00.620Z,21.47
2022-08-05T07:15:34.344Z,21.66
2022-08-05T07:24:11.335Z,21.86
2022-08-05T07:28:17.185Z,21.98
2022-08-05T07:32:18.927Z,22.13
2022-08-05T07:36:27.888Z,22.31
2022-08-05T07:40:33.140Z,22.47
2022-08-05T07:44:36.755Z,22.53
2022-08-05T07:49:02.902Z,22.50
2022-08-05T07:53:00.130Z,22.41
2022-08-05T07:57:18.193Z,22.36
2022-08-05T08:01:27.637Z,22.49
2022-08-05T08:05:31.448Z,22.71
2022-08-05T08:09:41.040Z,22.88
2022-08-05T08:13:49.534Z,22.95
2022-08-05T08:18:05.053Z,23.23
2022-08-05T08:22:09.873Z,23.48
2022-08-05T08:26:17.425Z,23.72
2022-08-05T08:30:37.639Z,23.74
2022-08-05T08:34:49.234Z,23.90
2022-08-05T08:38:55.130Z,23.88
2022-08-05T08:42:57.092Z,24.06
2022-08-05T08:48:06.328Z,24.35
2022-08-05T08:52:03.313Z,24.32
2022-08-05T08:56:08.097Z,24.47
2022-08-05T09:00:10.373Z,24.54
2022-08-05T09:04:17.631Z,24.46
2022-08-05T09:08:19.435Z,24.24
2022-08-05T09:12:28.745Z,23.85
2022-08-05T09:16:31.149Z,23.65
2022-08-05T09:20:37.250Z,23.44
2022-08-05T09:24:40.029Z,23.10
2022-08-05T09:28:41.530Z,22.90
2022-08-05T09:32:46.350Z,22.78
2022-08-05T09:36:56.221Z,22.95
2022-08-05T09:41:07.605Z,23.27
2022-08-05T09:45:49.642Z,23.38
2022-08-05T09:49:40.285Z,23.66
2022-08-05T09:53:59.420Z,23.80
2022-08-05T09:58:13.676Z,23.90
2022-08-05T10:02:30.699Z,24.03
2022-08-05T10:06:34.031Z,24.24
2022-08-05T10:10:48.209Z,24.36
2022-08-05T10:14:54.342Z,24.47
2022-08-05T10:18:56.822Z,24.48
2022-08-05T10:22:59.617Z,24.47
2022-08-05T10:27:01.433Z,24.64
2022-08-05T10:32:50.933Z,24.79
2022-08-05T10:35:33.646Z,24.85
2022-08-05T10:39:58.942Z,24.57
2022-08-05T10:44:09.339Z,24.40
2022-08-05T10:48:35.293Z,24.26
2022-08-05T10:52:58.774Z,24.24
2022-08-05T10:57:00.655Z,24.23
2022-08-05T11:01:06.432Z,24.37
2022-08-05T11:05:10.626Z,24.43
2022-08-05T11:09:24.430Z,24.45
2022-08-05T11:13:54.907Z,24.50
2022-08-05T11:18:24.334Z,24.54
2022-08-05T11:22:39.214Z,24.69
2022-08-05T11:26:43.851Z,24.68
2022-08-05T11:30:58.319Z,24.69
2022-08-05T11:35:00.165Z,24.56
2022-08-05T11:39:01.930Z,24.48
2022-08-05T11:43:03.384Z,24.60
2022-08-05T11:47:10.482Z,24.75
2022-08-05T11:51:44.526Z,24.84
2022-08-05T11:55:36.772Z,24.85
2022-08-05T11:59:42.037Z,24.96
2022-08-05T12:03:55.777Z,25.24
2022-08-05T12:08:03.823Z,25.54
2022-08-05T12:12:12.452Z,25.70
2022-08-05T12:16:19.747Z,25.84
2022-08-05T12:20:33.699Z,25.98
2022-08-05T12:24:40.376Z,26.25
2022-08-05T12:28:45.132Z,26.31
2022-08-05T12:32:53.544Z,26.26
2022-08-05T12:37:00.876Z,26.17
2022-08-05T12:41:13.089Z,26.40
2022-08-05T12:45:15.294Z,26.57
2022-08-05T12:49:19.107Z,26.91
2022-08-05T12:53:24.098Z,27.09
2022-08-05T12:58:49.664Z,27.09
2022-08-05T13:02:07.914Z,27.02
2022-08-05T13:06:16.741Z,26.79
2022-08-05T13:10:19.710Z,26.60
2022-08-05T13:14:35.847Z,26.70
2022-08-05T13:18:39.242Z,27.01
2022-08-05T13:22:49.853Z,27.39
2022-08-05T13:26:52.256Z,27.56
2022-08-05T13:30:53.845Z,27.55
2022-08-05T13:34:55.410Z,27.49
2022-08-05T13:38:56.821Z,27.55
2022-08-05T13:42:58.467Z,27.43
2022-08-05T13:47:04.971Z,27.39
2022-08-05T13:51:13.933Z,27.51
2022-08-05T13:55:41.458Z,27.46
2022-08-05T13:59:38.429Z,27.32
2022-08-05T14:04:18.376Z,27.10
2022-08-05T14:08:27.880Z,26.94
2022-08-05T14:12:33.901Z,26.97
2022-08-05T14:16:35.575Z,27.03
2022-08-05T14:20:37.007Z,26.90
2022-08-05T14:24:39.835Z,26.90
2022-08-05T14:28:52.256Z,26.78
2022-08-05T14:32:54.035Z,26.69
2022-08-05T14:36:55.784Z,26.47
2022-08-05T14:40:57.202Z,26.27
2022-08-05T14:44:59.353Z,26.15
2022-08-05T14:49:06.510Z,26.01
2022-08-05T14:53:09.198Z,26.00
2022-08-05T14:57:13.634Z,25.92
2022-08-05T15:01:18.181Z,26.02
2022-08-05T15:05:30.157Z,26.00
2022-08-05T15:09:53.945Z,25.87
2022-08-05T15:13:56.352Z,25.96
2022-08-05T15:18:03.702Z,26.06
2022-08-05T15:22:08.988Z,26.16
2022-08-05T15:26:10.450Z,26.18
2022-08-05T15:30:14.199Z,26.23
2022-08-05T15:34:31.381Z,26.16
2022-08-05T15:38:41.045Z,26.00
2022-08-05T15:42:54.051Z,25.91
2022-08-05T15:47:01.218Z,25.77
2022-08-05T15:51:05.765Z,25.58
2022-08-05T15:55:10.637Z,25.43
2022-08-05T15:59:21.799Z,25.32
2022-08-05T16:03:23.901Z,25.16
2022-08-05T16:07:25.374Z,25.02
2022-08-05T16:11:39.880Z,24.93
2022-08-05T16:15:42.418Z,24.85
2022-08-05T16:20:03.079Z,24.83
2022-08-05T16:24:12.782Z,24.81
2022-08-05T16:28:28.345Z,24.85
2022-08-05T16:32:29.984Z,24.89
2022-08-05T16:36:31.389Z,24.93
2022-08-05T16:40:32.859Z,25.08
2022-08-05T16:44:34.465Z,25.12
2022-08-05T16:48:39.288Z,25.10
2022-08-05T16:52:45.972Z,24.99
2022-08-05T16:56:47.846Z,24.85
2022-08-05T17:00:53.759Z,24.76
2022-08-05T17:04:56.442Z,24.69
2022-08-05T17:08:57.828Z,24.68
2022-08-05T17:13:00.564Z,24.70
2022-08-05T17:17:03.678Z,24.73
2022-08-05T17:21:06.301Z,24.75
2022-08-05T17:25:09.541Z,24.71
2022-08-05T17:29:33.502Z,24.67
2022-08-05T17:33:48.409Z,24.63
2022-08-05T17:37:52.437Z,24.55
2022-08-05T17:42:17.825Z,24.44
2022-08-05T17:46:23.716Z,24.33
2022-08-05T17:50:30.005Z,24.22
2022-08-05T17:54:33.779Z,24.09
2022-08-05T17:58:37.701Z,24.03
2022-08-05T18:02:39.325Z,23.97
2022-08-05T18:06:40.906Z,23.89
2022-08-05T18:10:47.291Z,23.77
2022-08-05T18:14:51.638Z,23.71
2022-08-05T18:18:53.721Z,23.65
2022-08-05T18:22:57.521Z,23.61
2022-08-05T18:26:59.808Z,23.55
2022-08-05T18:31:01.187Z,23.46
2022-08-05T18:35:03.261Z,23.35
2022-08-05T18:39:09.674Z,23.27
2022-08-05T18:43:24.261Z,23.17
2022-08-05T18:47:34.318Z,23.03
2022-08-05T18:52:05.203Z,22.95
2022-08-05T18:56:12.417Z,22.81
2022-08-05T19:00:20.476Z,22.68
2022-08-05T19:04:22.570Z,22.56
2022-08-05T19:08:30.225Z,22.39
2022-08-05T19:12:33.658Z,22.34
2022-08-05T19:16:46.718Z,22.30
2022-08-05T19:20:52.268Z,22.15
2022-08-05T19:25:00.161Z,21.94
2022-08-05T19:29:02.106Z,21.81
2022-08-05T19:33:16.685Z,21.75
2022-08-05T19:37:18.429Z,21.71
2022-08-05T19:42:05.591Z,21.65
2022-08-05T19:45:54.385Z,21.60
2022-08-05T19:49:57.221Z,21.54
2022-08-05T19:54:04.290Z,21.49
2022-08-05T19:58:28.899Z,21.30
2022-08-05T20:02:32.098Z,21.22
2022-08-05T20:06:37.586Z,21.17
2022-08-05T20:10:49.378Z,21.10
2022-08-05T20:14:54.817Z,21.05
2022-08-05T20:18:56.537Z,21.01
2022-08-05T20:22:58.447Z,20.94
2022-08-05T20:27:00.121Z,20.92
2022-08-05T20:31:01.845Z,20.88
2022-08-05T20:35:03.490Z,20.80
2022-08-05T20:39:05.016Z,20.73
2022-08-05T20:43:07.602Z,20.60
2022-08-05T20:47:09.187Z,20.58
2022-08-05T20:51:11.483Z,20.48
2022-08-05T20:55:56.301Z,20.42
2022-08-05T21:00:10.531Z,20.30
2022-08-05T21:03:57.763Z,20.11
2022-08-05T21:07:59.452Z,20.11
2022-08-05T21:12:10.518Z,20.07
2022-08-05T21:16:13.541Z,20.00
2022-08-05T21:20:15.337Z,19.94
2022-08-05T21:24:35.326Z,19.88
2022-08-05T21:28:36.878Z,19.84
2022-08-05T21:32:40.089Z,19.82
2022-08-05T21:36:48.968Z,19.76
2022-08-05T21:40:50.546Z,19.67
2022-08-05T21:44:52.058Z,19.63
2022-08-05T21:48:56.739Z,19.51
2022-08-05T21:53:08.522Z,19.38
2022-08-05T21:57:33.727Z,19.21
2022-08-05T22:01:35.634Z,19.06
2022-08-05T22:05:48.656Z,18.96
2022-08-05T22:09:50.835Z,18.89
2022-08-05T22:14:33.029Z,18.62
2022-08-05T22:18:14.466Z,18.49
2022-08-05T22:22:16.206Z,18.43
2022-08-05T22:26:49.902Z,18.20
2022-08-05T22:30:56.027Z,18.04
2022-08-05T22:34:57.998Z,17.94
2022-08-05T22:39:04.382Z,17.88
2022-08-05T22:43:11.372Z,17.83
2022-08-05T22:47:14.924Z,17.84
2022-08-05T22:52:04.812Z,17.83
2022-08-05T22:55:56.643Z,17.70
2022-08-05T22:59:59.010Z,17.61
2022-08-05T23:04:00.488Z,17.59
2022-08-05T23:08:03.740Z,17.49
2022-08-05T23:12:06.120Z,17.45
2022-08-05T23:16:08.334Z,17.43
2022-08-05T23:20:17.398Z,17.34
2022-08-05T23:24:19.385Z,17.30
2022-08-05T23:28:21.955Z,17.24
2022-08-05T23:36:44.572Z,17.12
2022-08-05T23:40:49.771Z,17.05
2022-08-05T23:44:54.284Z,17.01
2022-08-05T23:49:00.817Z,16.93
2022-08-05T23:53:03.414Z,16.90
2022-08-05T23:57:05.465Z,16.80
